sensor_id;sensor_type;location;lat;lon;timestamp;temperature;humidity
62998;DHT22;55949;52.590;7.330;2022-11-04T00:00:19;13.60;99.90
62998;DHT22;55949;52.590;7.330;2022-11-04T00:01:20;13.50;99.90
62998;DHT22;55949;52.590;7.330;2022-11-04T00:02:21;13.50;99.90
62998;DHT22;55949;52.590;7.330;2022-11-04T00:03:21;13.60;99.90
62998;DHT22;55949;52.590;7.330;2022-11-04T00:04:25;13.60;99.90
62998;DHT22;55949;52.590;7.330;2022-11-04T00:05:26;13.80;99.90
62998;DHT22;55949;52.590;7.330;2022-11-04T00:06:26;13.80;99.90
62998;DHT22;55949;52.590;7.330;2022-11-04T00:07:27;13.80;99.90
62998;DHT22;55949;52.590;7.330;2022-11-04T00:08:51;13.90;99.90
62998;DHT22;55949;52.590;7.330;2022-11-04T00:09:52;13.70;99.90
62998;DHT22;55949;52.590;7.330;2022-11-04T00:10:58;13.40;99.90
62998;DHT22;55949;52.590;7.330;2022-11-04T00:12:17;13.50;99.90
62998;DHT22;55949;52.590;7.330;2022-11-04T00:13:24;13.60;99.90
62998;DHT22;55949;52.590;7.330;2022-11-04T00:14:26;13.40;99.90
62998;DHT22;55949;52.590;7.330;2022-11-04T00:15:27;13.20;99.90
62998;DHT22;55949;52.590;7.330;2022-11-04T00:16:46;12.60;99.90
62998;DHT22;55949;52.590;7.330;2022-11-04T00:18:05;12.30;99.90
62998;DHT22;55949;52.590;7.330;2022-11-04T00:19:06;12.20;99.90
62998;DHT22;55949;52.590;7.330;2022-11-04T00:20:07;12.10;99.90
62998;DHT22;55949;52.590;7.330;2022-11-04T00:21:27;11.90;99.90
62998;DHT22;55949;52.590;7.330;2022-11-04T00:22:46;11.80;99.90
62998;DHT22;55949;52.590;7.330;2022-11-04T00:24:07;11.80;99.90
62998;DHT22;55949;52.590;7.330;2022-11-04T00:25:28;11.70;99.90
62998;DHT22;55949;52.590;7.330;2022-11-04T00:26:47;11.70;99.90
62998;DHT22;55949;52.590;7.330;2022-11-04T00:28:17;11.80;99.90
62998;DHT22;55949;52.590;7.330;2022-11-04T00:29:36;11.70;99.90
62998;DHT22;55949;52.590;7.330;2022-11-04T00:30:37;11.70;99.90
62998;DHT22;55949;52.590;7.330;2022-11-04T00:31:37;11.60;99.90
62998;DHT22;55949;52.590;7.330;2022-11-04T00:32:57;11.60;99.90
62998;DHT22;55949;52.590;7.330;2022-11-04T00:34:16;11.50;99.90
62998;DHT22;55949;52.590;7.330;2022-11-04T00:35:17;11.50;99.90
62998;DHT22;55949;52.590;7.330;2022-11-04T00:36:19;11.40;99.90
62998;DHT22;55949;52.590;7.330;2022-11-04T00:37:19;11.40;99.90
62998;DHT22;55949;52.590;7.330;2022-11-04T00:38:21;11.40;99.90
62998;DHT22;55949;52.590;7.330;2022-11-04T00:39:22;11.30;99.90
62998;DHT22;55949;52.590;7.330;2022-11-04T00:40:23;11.30;99.90
62998;DHT22;55949;52.590;7.330;2022-11-04T00:41:23;11.30;99.90
62998;DHT22;55949;52.590;7.330;2022-11-04T00:42:27;11.20;99.90
62998;DHT22;55949;52.590;7.330;2022-11-04T00:43:27;11.20;99.90
62998;DHT22;55949;52.590;7.330;2022-11-04T00:44:28;11.10;99.90
62998;DHT22;55949;52.590;7.330;2022-11-04T00:45:29;11.20;99.90
62998;DHT22;55949;52.590;7.330;2022-11-04T00:46:31;11.20;99.90
62998;DHT22;55949;52.590;7.330;2022-11-04T00:47:32;11.20;99.90
62998;DHT22;55949;52.590;7.330;2022-11-04T00:48:33;11.10;99.90
62998;DHT22;55949;52.590;7.330;2022-11-04T00:49:33;11.20;99.90
62998;DHT22;55949;52.590;7.330;2022-11-04T00:50:34;11.10;99.90
62998;DHT22;55949;52.590;7.330;2022-11-04T00:51:35;11.10;99.90
62998;DHT22;55949;52.590;7.330;2022-11-04T00:52:36;11.20;99.90
62998;DHT22;55949;52.590;7.330;2022-11-04T00:53:36;11.20;99.90
62998;DHT22;55949;52.590;7.330;2022-11-04T00:54:37;11.20;99.90
62998;DHT22;55949;52.590;7.330;2022-11-04T00:55:38;11.20;99.90
62998;DHT22;55949;52.590;7.330;2022-11-04T00:56:39;11.10;99.90
62998;DHT22;55949;52.590;7.330;2022-11-04T00:57:40;11.10;99.90
62998;DHT22;55949;52.590;7.330;2022-11-04T00:58:41;11.10;99.90
62998;DHT22;55949;52.590;7.330;2022-11-04T00:59:42;11.10;99.90
62998;DHT22;55949;52.590;7.330;2022-11-04T01:00:42;11.10;99.90
62998;DHT22;55949;52.590;7.330;2022-11-04T01:01:43;11.10;99.90
62998;DHT22;55949;52.590;7.330;2022-11-04T01:02:44;11.10;99.90
62998;DHT22;55949;52.590;7.330;2022-11-04T01:03:47;11.00;99.90
62998;DHT22;55949;52.590;7.330;2022-11-04T01:04:48;10.90;99.90
62998;DHT22;55949;52.590;7.330;2022-11-04T01:05:48;11.00;99.90
62998;DHT22;55949;52.590;7.330;2022-11-04T01:06:49;11.10;99.90
62998;DHT22;55949;52.590;7.330;2022-11-04T01:07:50;11.00;99.90
62998;DHT22;55949;52.590;7.330;2022-11-04T01:09:02;10.90;99.90
62998;DHT22;55949;52.590;7.330;2022-11-04T01:10:04;11.00;99.90
62998;DHT22;55949;52.590;7.330;2022-11-04T01:11:07;11.00;99.90
62998;DHT22;55949;52.590;7.330;2022-11-04T01:12:08;11.00;99.90
62998;DHT22;55949;52.590;7.330;2022-11-04T01:13:11;11.00;99.90
62998;DHT22;55949;52.590;7.330;2022-11-04T01:14:12;10.90;99.90
62998;DHT22;55949;52.590;7.330;2022-11-04T01:15:13;11.00;99.90
62998;DHT22;55949;52.590;7.330;2022-11-04T01:16:14;11.00;99.90
62998;DHT22;55949;52.590;7.330;2022-11-04T01:17:15;11.00;99.90
62998;DHT22;55949;52.590;7.330;2022-11-04T01:18:16;11.10;99.90
62998;DHT22;55949;52.590;7.330;2022-11-04T01:19:17;11.10;99.90
62998;DHT22;55949;52.590;7.330;2022-11-04T01:20:18;11.10;99.90
62998;DHT22;55949;52.590;7.330;2022-11-04T01:21:18;11.10;99.90
62998;DHT22;55949;52.590;7.330;2022-11-04T01:22:19;11.20;99.90
62998;DHT22;55949;52.590;7.330;2022-11-04T01:23:20;11.10;99.90
62998;DHT22;55949;52.590;7.330;2022-11-04T01:24:21;11.10;99.90
62998;DHT22;55949;52.590;7.330;2022-11-04T01:25:22;11.20;99.90
62998;DHT22;55949;52.590;7.330;2022-11-04T01:26:24;11.10;99.90
62998;DHT22;55949;52.590;7.330;2022-11-04T01:27:25;11.10;99.90
62998;DHT22;55949;52.590;7.330;2022-11-04T01:28:26;11.20;99.90
62998;DHT22;55949;52.590;7.330;2022-11-04T01:29:26;11.10;99.90
62998;DHT22;55949;52.590;7.330;2022-11-04T01:30:27;11.10;99.90
62998;DHT22;55949;52.590;7.330;2022-11-04T01:31:30;11.10;99.90
62998;DHT22;55949;52.590;7.330;2022-11-04T01:32:30;11.10;99.90
62998;DHT22;55949;52.590;7.330;2022-11-04T01:33:31;11.10;99.90
62998;DHT22;55949;52.590;7.330;2022-11-04T01:34:32;11.10;99.90
62998;DHT22;55949;52.590;7.330;2022-11-04T01:35:33;11.10;99.90
62998;DHT22;55949;52.590;7.330;2022-11-04T01:36:33;11.00;99.90
62998;DHT22;55949;52.590;7.330;2022-11-04T01:37:34;11.10;99.90
62998;DHT22;55949;52.590;7.330;2022-11-04T01:38:35;11.20;99.90
62998;DHT22;55949;52.590;7.330;2022-11-04T01:39:36;11.10;99.90
62998;DHT22;55949;52.590;7.330;2022-11-04T01:40:37;11.10;99.90
62998;DHT22;55949;52.590;7.330;2022-11-04T01:41:39;11.10;99.90
62998;DHT22;55949;52.590;7.330;2022-11-04T01:42:40;11.10;99.90
62998;DHT22;55949;52.590;7.330;2022-11-04T01:43:48;11.10;99.90
62998;DHT22;55949;52.590;7.330;2022-11-04T01:45:12;11.20;99.90
62998;DHT22;55949;52.590;7.330;2022-11-04T01:47:49;11.10;99.90
62998;DHT22;55949;52.590;7.330;2022-11-04T01:49:00;11.00;99.90
62998;DHT22;55949;52.590;7.330;2022-11-04T01:51:14;11.10;99.90
62998;DHT22;55949;52.590;7.330;2022-11-04T01:52:20;11.10;99.90
62998;DHT22;55949;52.590;7.330;2022-11-04T01:53:27;11.10;99.90
62998;DHT22;55949;52.590;7.330;2022-11-04T01:54:30;11.20;99.90
62998;DHT22;55949;52.590;7.330;2022-11-04T01:55:33;11.10;99.90
62998;DHT22;55949;52.590;7.330;2022-11-04T01:56:35;11.10;99.90
62998;DHT22;55949;52.590;7.330;2022-11-04T01:57:41;11.20;99.90
62998;DHT22;55949;52.590;7.330;2022-11-04T01:58:51;11.10;99.90
62998;DHT22;55949;52.590;7.330;2022-11-04T01:59:54;11.10;99.90
62998;DHT22;55949;52.590;7.330;2022-11-04T02:00:57;11.10;99.90
62998;DHT22;55949;52.590;7.330;2022-11-04T02:01:58;11.10;99.90
62998;DHT22;55949;52.590;7.330;2022-11-04T02:03:14;11.10;99.90
62998;DHT22;55949;52.590;7.330;2022-11-04T02:04:15;11.00;99.90
62998;DHT22;55949;52.590;7.330;2022-11-04T02:05:26;10.90;99.90
62998;DHT22;55949;52.590;7.330;2022-11-04T02:06:27;10.90;99.90
62998;DHT22;55949;52.590;7.330;2022-11-04T02:07:28;10.90;99.90
62998;DHT22;55949;52.590;7.330;2022-11-04T02:08:29;10.90;99.90
62998;DHT22;55949;52.590;7.330;2022-11-04T02:09:30;10.90;99.90
62998;DHT22;55949;52.590;7.330;2022-11-04T02:10:32;10.90;99.90
62998;DHT22;55949;52.590;7.330;2022-11-04T02:11:33;10.90;99.90
62998;DHT22;55949;52.590;7.330;2022-11-04T02:12:53;10.90;99.90
62998;DHT22;55949;52.590;7.330;2022-11-04T02:13:54;10.90;99.90
62998;DHT22;55949;52.590;7.330;2022-11-04T02:14:57;10.90;99.90
62998;DHT22;55949;52.590;7.330;2022-11-04T02:18:51;10.90;99.90
62998;DHT22;55949;52.590;7.330;2022-11-04T02:23:25;10.90;99.90
62998;DHT22;55949;52.590;7.330;2022-11-04T02:30:35;11.10;99.90
62998;DHT22;55949;52.590;7.330;2022-11-04T02:33:25;11.00;99.90
62998;DHT22;55949;52.590;7.330;2022-11-04T02:35:36;10.90;99.90
62998;DHT22;55949;52.590;7.330;2022-11-04T02:36:57;10.90;99.90
62998;DHT22;55949;52.590;7.330;2022-11-04T02:39:53;10.90;99.90
62998;DHT22;55949;52.590;7.330;2022-11-04T02:42:06;10.80;99.90
62998;DHT22;55949;52.590;7.330;2022-11-04T02:44:54;10.70;99.90
62998;DHT22;55949;52.590;7.330;2022-11-04T02:47:43;10.80;99.90
62998;DHT22;55949;52.590;7.330;2022-11-04T02:48:54;10.80;99.90
62998;DHT22;55949;52.590;7.330;2022-11-04T02:50:15;10.90;99.90
62998;DHT22;55949;52.590;7.330;2022-11-04T02:52:13;11.00;99.90
62998;DHT22;55949;52.590;7.330;2022-11-04T02:52:58;10.90;99.90
62998;DHT22;55949;52.590;7.330;2022-11-04T02:55:19;10.80;99.90
62998;DHT22;55949;52.590;7.330;2022-11-04T02:56:21;10.80;99.90
62998;DHT22;55949;52.590;7.330;2022-11-04T02:57:27;10.80;99.90
62998;DHT22;55949;52.590;7.330;2022-11-04T02:58:36;10.80;99.90
62998;DHT22;55949;52.590;7.330;2022-11-04T03:00:04;10.80;99.90
62998;DHT22;55949;52.590;7.330;2022-11-04T03:01:07;10.70;99.90
62998;DHT22;55949;52.590;7.330;2022-11-04T03:02:13;10.70;99.90
62998;DHT22;55949;52.590;7.330;2022-11-04T03:03:21;10.70;99.90
62998;DHT22;55949;52.590;7.330;2022-11-04T03:04:29;10.70;99.90
62998;DHT22;55949;52.590;7.330;2022-11-04T03:05:33;10.70;99.90
62998;DHT22;55949;52.590;7.330;2022-11-04T03:06:36;10.70;99.90
62998;DHT22;55949;52.590;7.330;2022-11-04T03:07:39;10.70;99.90
62998;DHT22;55949;52.590;7.330;2022-11-04T03:08:45;10.70;99.90
62998;DHT22;55949;52.590;7.330;2022-11-04T03:09:50;10.70;99.90
62998;DHT22;55949;52.590;7.330;2022-11-04T03:10:55;10.60;99.90
62998;DHT22;55949;52.590;7.330;2022-11-04T03:12:02;10.60;99.90
62998;DHT22;55949;52.590;7.330;2022-11-04T03:13:25;10.60;99.90
62998;DHT22;55949;52.590;7.330;2022-11-04T03:14:35;10.60;99.90
62998;DHT22;55949;52.590;7.330;2022-11-04T03:15:38;10.60;99.90
62998;DHT22;55949;52.590;7.330;2022-11-04T03:16:48;10.50;99.90
62998;DHT22;55949;52.590;7.330;2022-11-04T03:20:07;10.60;99.90
62998;DHT22;55949;52.590;7.330;2022-11-04T03:21:11;10.50;99.90
62998;DHT22;55949;52.590;7.330;2022-11-04T03:22:18;10.50;99.90
62998;DHT22;55949;52.590;7.330;2022-11-04T03:23:20;10.60;99.90
62998;DHT22;55949;52.590;7.330;2022-11-04T03:24:21;10.60;99.90
62998;DHT22;55949;52.590;7.330;2022-11-04T03:25:29;10.60;99.90
62998;DHT22;55949;52.590;7.330;2022-11-04T03:26:38;10.60;99.90
62998;DHT22;55949;52.590;7.330;2022-11-04T03:30:07;10.60;99.90
62998;DHT22;55949;52.590;7.330;2022-11-04T03:31:15;10.60;99.90
62998;DHT22;55949;52.590;7.330;2022-11-04T03:34:01;10.50;99.90
62998;DHT22;55949;52.590;7.330;2022-11-04T03:35:01;10.50;99.90
62998;DHT22;55949;52.590;7.330;2022-11-04T03:36:02;10.40;99.90
62998;DHT22;55949;52.590;7.330;2022-11-04T03:37:04;10.50;99.90
62998;DHT22;55949;52.590;7.330;2022-11-04T03:38:05;10.50;99.90
62998;DHT22;55949;52.590;7.330;2022-11-04T03:39:05;10.50;99.90
62998;DHT22;55949;52.590;7.330;2022-11-04T03:40:07;10.50;99.90
62998;DHT22;55949;52.590;7.330;2022-11-04T03:41:29;10.50;99.90
62998;DHT22;55949;52.590;7.330;2022-11-04T03:42:34;10.50;99.90
62998;DHT22;55949;52.590;7.330;2022-11-04T03:43:38;10.60;99.90
62998;DHT22;55949;52.590;7.330;2022-11-04T03:44:41;10.60;99.90
62998;DHT22;55949;52.590;7.330;2022-11-04T03:45:43;10.70;99.90
62998;DHT22;55949;52.590;7.330;2022-11-04T03:46:44;10.70;99.90
62998;DHT22;55949;52.590;7.330;2022-11-04T03:47:45;10.70;99.90
62998;DHT22;55949;52.590;7.330;2022-11-04T03:48:46;10.70;99.90
62998;DHT22;55949;52.590;7.330;2022-11-04T03:49:48;10.80;99.90
62998;DHT22;55949;52.590;7.330;2022-11-04T03:50:49;10.70;99.90
62998;DHT22;55949;52.590;7.330;2022-11-04T03:51:51;10.70;99.90
62998;DHT22;55949;52.590;7.330;2022-11-04T03:52:52;10.80;99.90
62998;DHT22;55949;52.590;7.330;2022-11-04T03:53:53;10.80;99.90
62998;DHT22;55949;52.590;7.330;2022-11-04T03:54:54;10.70;99.90
62998;DHT22;55949;52.590;7.330;2022-11-04T04:00:21;10.70;99.90
62998;DHT22;55949;52.590;7.330;2022-11-04T04:01:42;10.70;99.90
62998;DHT22;55949;52.590;7.330;2022-11-04T04:03:05;10.60;99.90
62998;DHT22;55949;52.590;7.330;2022-11-04T04:04:28;10.60;99.90
62998;DHT22;55949;52.590;7.330;2022-11-04T04:05:52;10.60;99.90
62998;DHT22;55949;52.590;7.330;2022-11-04T04:07:04;10.60;99.90
62998;DHT22;55949;52.590;7.330;2022-11-04T04:08:37;10.70;99.90
62998;DHT22;55949;52.590;7.330;2022-11-04T04:09:40;10.50;99.90
62998;DHT22;55949;52.590;7.330;2022-11-04T04:10:51;10.50;99.90
62998;DHT22;55949;52.590;7.330;2022-11-04T04:15:02;10.30;99.90
62998;DHT22;55949;52.590;7.330;2022-11-04T04:18:37;10.30;99.90
62998;DHT22;55949;52.590;7.330;2022-11-04T04:19:42;10.20;99.90
62998;DHT22;55949;52.590;7.330;2022-11-04T04:20:44;10.20;99.90
62998;DHT22;55949;52.590;7.330;2022-11-04T04:21:52;10.20;99.90
62998;DHT22;55949;52.590;7.330;2022-11-04T04:23:15;10.20;99.90
62998;DHT22;55949;52.590;7.330;2022-11-04T04:24:38;10.20;99.90
62998;DHT22;55949;52.590;7.330;2022-11-04T04:26:02;10.10;99.90
62998;DHT22;55949;52.590;7.330;2022-11-04T04:27:23;10.10;99.90
62998;DHT22;55949;52.590;7.330;2022-11-04T04:28:30;10.10;99.90
62998;DHT22;55949;52.590;7.330;2022-11-04T04:29:31;10.10;99.90
62998;DHT22;55949;52.590;7.330;2022-11-04T04:30:32;10.20;99.90
62998;DHT22;55949;52.590;7.330;2022-11-04T04:31:35;10.20;99.90
62998;DHT22;55949;52.590;7.330;2022-11-04T04:32:55;10.20;99.90
62998;DHT22;55949;52.590;7.330;2022-11-04T04:33:57;10.20;99.90
62998;DHT22;55949;52.590;7.330;2022-11-04T04:34:58;10.20;99.90
62998;DHT22;55949;52.590;7.330;2022-11-04T04:36:17;10.20;99.90
62998;DHT22;55949;52.590;7.330;2022-11-04T04:37:20;10.20;99.90
62998;DHT22;55949;52.590;7.330;2022-11-04T04:38:24;10.10;99.90
62998;DHT22;55949;52.590;7.330;2022-11-04T04:39:56;10.10;99.90
62998;DHT22;55949;52.590;7.330;2022-11-04T04:41:20;10.20;99.90
62998;DHT22;55949;52.590;7.330;2022-11-04T04:42:41;10.20;99.90
62998;DHT22;55949;52.590;7.330;2022-11-04T04:44:00;10.10;99.90
62998;DHT22;55949;52.590;7.330;2022-11-04T04:45:29;10.00;99.90
62998;DHT22;55949;52.590;7.330;2022-11-04T04:46:31;10.00;99.90
62998;DHT22;55949;52.590;7.330;2022-11-04T04:47:40;9.90;99.90
62998;DHT22;55949;52.590;7.330;2022-11-04T04:48:42;9.90;99.90
62998;DHT22;55949;52.590;7.330;2022-11-04T04:49:54;9.90;99.90
62998;DHT22;55949;52.590;7.330;2022-11-04T04:50:56;9.90;99.90
62998;DHT22;55949;52.590;7.330;2022-11-04T04:51:56;9.90;99.90
62998;DHT22;55949;52.590;7.330;2022-11-04T04:52:58;9.90;99.90
62998;DHT22;55949;52.590;7.330;2022-11-04T04:53:59;9.90;99.90
62998;DHT22;55949;52.590;7.330;2022-11-04T04:55:00;9.90;99.90
62998;DHT22;55949;52.590;7.330;2022-11-04T04:56:01;9.90;99.90
62998;DHT22;55949;52.590;7.330;2022-11-04T04:57:01;9.90;99.90
62998;DHT22;55949;52.590;7.330;2022-11-04T04:58:02;9.90;99.90
62998;DHT22;55949;52.590;7.330;2022-11-04T04:59:03;10.00;99.90
62998;DHT22;55949;52.590;7.330;2022-11-04T05:00:06;9.80;99.90
62998;DHT22;55949;52.590;7.330;2022-11-04T05:01:08;9.80;99.90
62998;DHT22;55949;52.590;7.330;2022-11-04T05:02:09;9.90;99.90
62998;DHT22;55949;52.590;7.330;2022-11-04T05:03:09;9.90;99.90
62998;DHT22;55949;52.590;7.330;2022-11-04T05:04:10;9.90;99.90
62998;DHT22;55949;52.590;7.330;2022-11-04T05:05:12;9.90;99.90
62998;DHT22;55949;52.590;7.330;2022-11-04T05:06:13;9.90;99.90
62998;DHT22;55949;52.590;7.330;2022-11-04T05:07:14;9.90;99.90
62998;DHT22;55949;52.590;7.330;2022-11-04T05:08:14;9.90;99.90
62998;DHT22;55949;52.590;7.330;2022-11-04T05:09:15;10.00;99.90
62998;DHT22;55949;52.590;7.330;2022-11-04T05:10:17;9.90;99.90
62998;DHT22;55949;52.590;7.330;2022-11-04T05:11:17;9.90;99.90
62998;DHT22;55949;52.590;7.330;2022-11-04T05:12:18;9.90;99.90
62998;DHT22;55949;52.590;7.330;2022-11-04T05:13:19;9.90;99.90
62998;DHT22;55949;52.590;7.330;2022-11-04T05:14:25;9.80;99.90
62998;DHT22;55949;52.590;7.330;2022-11-04T05:15:27;9.90;99.90
62998;DHT22;55949;52.590;7.330;2022-11-04T05:16:28;9.80;99.90
62998;DHT22;55949;52.590;7.330;2022-11-04T05:17:29;9.80;99.90
62998;DHT22;55949;52.590;7.330;2022-11-04T05:18:30;9.80;99.90
62998;DHT22;55949;52.590;7.330;2022-11-04T05:19:30;9.80;99.90
62998;DHT22;55949;52.590;7.330;2022-11-04T05:20:31;9.80;99.90
62998;DHT22;55949;52.590;7.330;2022-11-04T05:21:33;9.70;99.90
62998;DHT22;55949;52.590;7.330;2022-11-04T05:22:34;9.80;99.90
62998;DHT22;55949;52.590;7.330;2022-11-04T05:23:35;9.80;99.90
62998;DHT22;55949;52.590;7.330;2022-11-04T05:24:35;9.80;99.90
62998;DHT22;55949;52.590;7.330;2022-11-04T05:25:37;9.70;99.90
62998;DHT22;55949;52.590;7.330;2022-11-04T05:26:39;9.70;99.90
62998;DHT22;55949;52.590;7.330;2022-11-04T05:27:39;9.70;99.90
62998;DHT22;55949;52.590;7.330;2022-11-04T05:28:40;9.70;99.90
62998;DHT22;55949;52.590;7.330;2022-11-04T05:29:41;9.80;99.90
62998;DHT22;55949;52.590;7.330;2022-11-04T05:30:42;9.80;99.90
62998;DHT22;55949;52.590;7.330;2022-11-04T05:31:43;9.80;99.90
62998;DHT22;55949;52.590;7.330;2022-11-04T05:32:44;9.70;99.90
62998;DHT22;55949;52.590;7.330;2022-11-04T05:33:45;9.80;99.90
62998;DHT22;55949;52.590;7.330;2022-11-04T05:34:47;9.70;99.90
62998;DHT22;55949;52.590;7.330;2022-11-04T05:35:47;9.70;99.90
62998;DHT22;55949;52.590;7.330;2022-11-04T05:36:48;9.70;99.90
62998;DHT22;55949;52.590;7.330;2022-11-04T05:37:49;9.70;99.90
62998;DHT22;55949;52.590;7.330;2022-11-04T05:38:51;9.80;99.90
62998;DHT22;55949;52.590;7.330;2022-11-04T05:39:52;9.70;99.90
62998;DHT22;55949;52.590;7.330;2022-11-04T05:40:53;9.70;99.90
62998;DHT22;55949;52.590;7.330;2022-11-04T05:41:53;9.70;99.90
62998;DHT22;55949;52.590;7.330;2022-11-04T05:42:57;9.60;99.90
62998;DHT22;55949;52.590;7.330;2022-11-04T05:44:00;9.60;99.90
62998;DHT22;55949;52.590;7.330;2022-11-04T05:45:02;9.60;99.90
62998;DHT22;55949;52.590;7.330;2022-11-04T05:46:03;9.70;99.90
62998;DHT22;55949;52.590;7.330;2022-11-04T05:47:04;9.70;99.90
62998;DHT22;55949;52.590;7.330;2022-11-04T05:48:05;9.70;99.90
62998;DHT22;55949;52.590;7.330;2022-11-04T05:49:06;9.70;99.90
62998;DHT22;55949;52.590;7.330;2022-11-04T05:50:07;9.70;99.90
62998;DHT22;55949;52.590;7.330;2022-11-04T05:51:12;9.70;99.90
62998;DHT22;55949;52.590;7.330;2022-11-04T05:52:13;9.70;99.90
62998;DHT22;55949;52.590;7.330;2022-11-04T05:53:14;9.70;99.90
62998;DHT22;55949;52.590;7.330;2022-11-04T05:54:15;9.60;99.90
62998;DHT22;55949;52.590;7.330;2022-11-04T05:55:16;9.60;99.90
62998;DHT22;55949;52.590;7.330;2022-11-04T05:56:16;9.60;99.90
62998;DHT22;55949;52.590;7.330;2022-11-04T05:57:17;9.60;99.90
62998;DHT22;55949;52.590;7.330;2022-11-04T05:58:18;9.60;99.90
62998;DHT22;55949;52.590;7.330;2022-11-04T05:59:18;9.60;99.90
62998;DHT22;55949;52.590;7.330;2022-11-04T06:00:19;9.60;99.90
62998;DHT22;55949;52.590;7.330;2022-11-04T06:02:26;9.50;99.90
62998;DHT22;55949;52.590;7.330;2022-11-04T06:03:26;9.60;99.90
62998;DHT22;55949;52.590;7.330;2022-11-04T06:04:27;9.50;99.90
62998;DHT22;55949;52.590;7.330;2022-11-04T06:05:28;9.50;99.90
62998;DHT22;55949;52.590;7.330;2022-11-04T06:06:31;9.40;99.90
62998;DHT22;55949;52.590;7.330;2022-11-04T06:07:32;9.40;99.90
62998;DHT22;55949;52.590;7.330;2022-11-04T06:08:33;9.40;99.90
62998;DHT22;55949;52.590;7.330;2022-11-04T06:09:34;9.40;99.90
62998;DHT22;55949;52.590;7.330;2022-11-04T06:10:42;9.40;99.90
62998;DHT22;55949;52.590;7.330;2022-11-04T06:11:43;9.40;99.90
62998;DHT22;55949;52.590;7.330;2022-11-04T06:12:44;9.40;99.90
62998;DHT22;55949;52.590;7.330;2022-11-04T06:13:45;9.30;99.90
62998;DHT22;55949;52.590;7.330;2022-11-04T06:14:46;9.40;99.90
62998;DHT22;55949;52.590;7.330;2022-11-04T06:15:47;9.40;99.90
62998;DHT22;55949;52.590;7.330;2022-11-04T06:16:47;9.40;99.90
62998;DHT22;55949;52.590;7.330;2022-11-04T06:17:48;9.40;99.90
62998;DHT22;55949;52.590;7.330;2022-11-04T06:18:49;9.40;99.90
62998;DHT22;55949;52.590;7.330;2022-11-04T06:19:50;9.40;99.90
62998;DHT22;55949;52.590;7.330;2022-11-04T06:22:16;9.60;99.90
62998;DHT22;55949;52.590;7.330;2022-11-04T06:23:17;9.50;99.90
62998;DHT22;55949;52.590;7.330;2022-11-04T06:24:18;9.40;99.90
62998;DHT22;55949;52.590;7.330;2022-11-04T06:25:19;9.50;99.90
62998;DHT22;55949;52.590;7.330;2022-11-04T06:26:20;9.50;99.90
62998;DHT22;55949;52.590;7.330;2022-11-04T06:27:21;9.50;99.90
62998;DHT22;55949;52.590;7.330;2022-11-04T06:28:22;9.40;99.90
62998;DHT22;55949;52.590;7.330;2022-11-04T06:29:22;9.40;99.90
62998;DHT22;55949;52.590;7.330;2022-11-04T06:30:23;9.40;99.90
62998;DHT22;55949;52.590;7.330;2022-11-04T06:31:24;9.50;99.90
62998;DHT22;55949;52.590;7.330;2022-11-04T06:32:24;9.40;99.90
62998;DHT22;55949;52.590;7.330;2022-11-04T06:33:26;9.50;99.90
62998;DHT22;55949;52.590;7.330;2022-11-04T06:34:26;9.40;99.90
62998;DHT22;55949;52.590;7.330;2022-11-04T06:35:27;9.50;99.90
62998;DHT22;55949;52.590;7.330;2022-11-04T06:36:28;9.50;99.90
62998;DHT22;55949;52.590;7.330;2022-11-04T06:37:28;9.60;99.90
62998;DHT22;55949;52.590;7.330;2022-11-04T06:38:30;9.60;99.90
62998;DHT22;55949;52.590;7.330;2022-11-04T06:39:31;9.60;99.90
62998;DHT22;55949;52.590;7.330;2022-11-04T06:40:32;9.70;99.90
62998;DHT22;55949;52.590;7.330;2022-11-04T06:41:33;9.60;99.90
62998;DHT22;55949;52.590;7.330;2022-11-04T06:42:34;9.60;99.90
62998;DHT22;55949;52.590;7.330;2022-11-04T06:43:34;9.60;99.90
62998;DHT22;55949;52.590;7.330;2022-11-04T06:44:35;9.70;99.90
62998;DHT22;55949;52.590;7.330;2022-11-04T06:45:36;9.70;99.90
62998;DHT22;55949;52.590;7.330;2022-11-04T06:46:38;9.70;99.90
62998;DHT22;55949;52.590;7.330;2022-11-04T06:47:39;9.50;99.90
62998;DHT22;55949;52.590;7.330;2022-11-04T06:48:40;9.60;99.90
62998;DHT22;55949;52.590;7.330;2022-11-04T06:49:41;9.50;99.90
62998;DHT22;55949;52.590;7.330;2022-11-04T06:50:41;9.60;99.90
62998;DHT22;55949;52.590;7.330;2022-11-04T06:51:42;9.60;99.90
62998;DHT22;55949;52.590;7.330;2022-11-04T06:52:43;9.70;99.90
62998;DHT22;55949;52.590;7.330;2022-11-04T06:53:44;9.70;99.90
62998;DHT22;55949;52.590;7.330;2022-11-04T06:54:44;9.90;99.90
62998;DHT22;55949;52.590;7.330;2022-11-04T06:55:47;10.00;99.90
62998;DHT22;55949;52.590;7.330;2022-11-04T06:56:48;10.00;99.90
62998;DHT22;55949;52.590;7.330;2022-11-04T06:57:48;10.10;99.90
62998;DHT22;55949;52.590;7.330;2022-11-04T06:58:51;10.10;99.90
62998;DHT22;55949;52.590;7.330;2022-11-04T06:59:51;10.20;99.90
62998;DHT22;55949;52.590;7.330;2022-11-04T07:00:53;10.00;99.90
62998;DHT22;55949;52.590;7.330;2022-11-04T07:01:53;10.10;99.90
62998;DHT22;55949;52.590;7.330;2022-11-04T07:02:54;10.10;99.90
62998;DHT22;55949;52.590;7.330;2022-11-04T07:03:57;10.30;99.90
62998;DHT22;55949;52.590;7.330;2022-11-04T07:04:58;10.40;99.90
62998;DHT22;55949;52.590;7.330;2022-11-04T07:06:03;10.50;99.90
62998;DHT22;55949;52.590;7.330;2022-11-04T07:07:04;10.40;99.90
62998;DHT22;55949;52.590;7.330;2022-11-04T07:08:05;10.40;99.90
62998;DHT22;55949;52.590;7.330;2022-11-04T07:09:06;10.50;99.90
62998;DHT22;55949;52.590;7.330;2022-11-04T07:10:06;10.60;99.90
62998;DHT22;55949;52.590;7.330;2022-11-04T07:11:07;10.70;99.90
62998;DHT22;55949;52.590;7.330;2022-11-04T07:12:08;10.80;99.90
62998;DHT22;55949;52.590;7.330;2022-11-04T07:13:09;10.80;99.90
62998;DHT22;55949;52.590;7.330;2022-11-04T07:14:10;10.70;99.90
62998;DHT22;55949;52.590;7.330;2022-11-04T07:15:11;10.90;99.90
62998;DHT22;55949;52.590;7.330;2022-11-04T07:16:12;10.70;99.90
62998;DHT22;55949;52.590;7.330;2022-11-04T07:17:13;10.60;99.90
62998;DHT22;55949;52.590;7.330;2022-11-04T07:18:14;10.70;99.90
62998;DHT22;55949;52.590;7.330;2022-11-04T07:19:14;10.60;99.90
62998;DHT22;55949;52.590;7.330;2022-11-04T07:20:15;10.50;99.90
62998;DHT22;55949;52.590;7.330;2022-11-04T07:21:16;10.50;99.90
62998;DHT22;55949;52.590;7.330;2022-11-04T07:22:16;10.50;99.90
62998;DHT22;55949;52.590;7.330;2022-11-04T07:23:17;10.60;99.90
62998;DHT22;55949;52.590;7.330;2022-11-04T07:24:18;10.50;99.90
62998;DHT22;55949;52.590;7.330;2022-11-04T07:25:19;10.40;99.90
62998;DHT22;55949;52.590;7.330;2022-11-04T07:26:20;10.30;99.90
62998;DHT22;55949;52.590;7.330;2022-11-04T07:27:21;10.30;99.90
62998;DHT22;55949;52.590;7.330;2022-11-04T07:28:22;10.30;99.90
62998;DHT22;55949;52.590;7.330;2022-11-04T07:29:23;10.30;99.90
62998;DHT22;55949;52.590;7.330;2022-11-04T07:30:24;10.40;99.90
62998;DHT22;55949;52.590;7.330;2022-11-04T07:31:25;10.40;99.90